Flight Track Log - Related Links

Times and Time Zones

All times are in EDT time to prevent confusion due to time zone crossing. See the N58EG flight status page for this flight to view local times or setup timezone preferences in your user account.

Time Position Orientation Groundspeed Altitude Reporting Facility
EDT Latitude Longitude Course Direction KTS MPH feet Rate Location/Type
Mon 07:18:30 PM 41.5561 -70.8978 257° West 159 183 4,600  Level Boston Center
Mon 07:19:31 PM 41.5467 -70.9533 257° West 160 184 4,600  Level Boston Center
Mon 07:20:19 PM 41.5389 -71.0064 259° West 160 184 4,600  Level Boston Center
Mon 07:21:38 PM 41.5253 -71.0786 256° West 161 185 4,600  Level Boston Center
Mon 07:22:39 PM 41.5156 -71.1369 257° West 160 184 4,600  Level Boston Center
Mon 07:23:40 PM 41.5078 -71.1928 259° West 160 184 4,600  Level Boston Center
Mon 07:24:40 PM 41.4981 -71.2511 257° West 161 185 4,600  Level Boston Center
Mon 07:25:41 PM 41.4903 -71.3094 260° West 162 186 4,600  Level Boston Center
Mon 07:26:36 PM 41.4783 -71.3650 254° West 163 188 4,600  Level Boston Center
Mon 07:27:30 PM 41.4683 -71.4178 256° West 162 186 4,600  Level Boston Center
Mon 07:28:37 PM 41.4586 -71.4844 259° West 164 189 4,600  Level Boston Center
Mon 07:29:32 PM 41.4506 -71.5372 259° West 164 189 4,600  Level Boston Center
Mon 07:30:32 PM 41.4386 -71.5983 255° West 162 186 4,600  Level Boston Center
Mon 07:31:39 PM 41.4286 -71.6650 259° West 162 186 4,600  Level Boston Center
Mon 07:32:40 PM 41.4186 -71.7258 258° West 163 188 4,600  Level Boston Center
Mon 07:33:40 PM 41.4086 -71.7842 257° West 164 189 4,600  Level Boston Center
Mon 07:34:41 PM 41.4006 -71.8422 260° West 163 188 4,600  Level Boston Center
Mon 07:35:36 PM 41.3883 -71.8950 253° West 160 184 4,600  Level Boston Center
Mon 07:36:37 PM 41.3803 -71.9558 260° West 162 186 4,600  Level Boston Center
Mon 07:37:44 PM 41.3658 -72.0225 254° West 165 190 4,600  Level Boston Center
Mon 07:38:45 PM 41.3600 -72.0833 263° West 165 190 4,600  Level Boston Center
Mon 07:39:46 PM 41.3497 -72.1414 257° West 166 191 4,600  Level Boston Center
Mon 07:41:57 PM 41.3167 -72.2667 251° West 165 190 4,600  Level New York TRACON
Mon 07:42:57 PM 41.3167 -72.3167 270° West 163 188 4,600  Level New York TRACON
Mon 07:43:57 PM 41.3000 -72.3833 252° West 164 189 4,600  Level New York TRACON
Mon 07:44:57 PM 41.3000 -72.4500 270° West 165 190 4,600  Level New York TRACON
Mon 07:45:57 PM 41.2833 -72.5000 246° West 165 190 4,600  Level New York TRACON
Mon 07:46:57 PM 41.2667 -72.5667 252° West 166 191 4,600  Level New York TRACON
Mon 07:47:51 PM 41.2667 -72.6167 270° West 163 188 4,600  Level New York TRACON
Mon 07:48:51 PM 41.2500 -72.6667 246° West 165 190 4,600  Level New York TRACON
Mon 07:49:51 PM 41.2500 -72.7167 270° West 162 186 4,600  Level New York TRACON
Mon 07:50:51 PM 41.2333 -72.7833 252° West 164 189 4,600  Level New York TRACON
Mon 07:51:51 PM 41.2167 -72.8333 246° West 163 188 4,600  Level New York TRACON
Mon 07:52:51 PM 41.2167 -72.9000 270° West 166 191 4,600  Level New York TRACON
Mon 07:53:51 PM 41.2000 -72.9500 246° West 160 184 4,600  Level New York TRACON
Mon 07:54:51 PM 41.2000 -73.0167 270° West 163 188 4,600  Level New York TRACON
Mon 07:55:51 PM 41.1833 -73.0667 246° West 161 185 4,600  Level New York TRACON
Mon 07:56:51 PM 41.1667 -73.1333 252° West 163 188 4,600  Level New York TRACON
Mon 07:57:51 PM 41.1667 -73.2000 270° West 161 185 4,600 -350 Level New York TRACON
Mon 07:58:51 PM 41.1500 -73.2500 246° West 176 203 3,900 -550 Descending New York TRACON
Mon 07:59:51 PM 41.1333 -73.3167 252° West 179 206 3,500 -400 Descending New York TRACON
Mon 08:00:51 PM 41.1333 -73.3833 270° West 173 199 3,100 -579 Descending New York TRACON
Mon 08:01:45 PM 41.1167 -73.4333 246° West 182 209 2,400 -316 Descending New York TRACON
Mon 08:02:45 PM 41.1000 -73.5000 252° West 162 186 2,500 -150 Climbing New York TRACON
Mon 08:03:45 PM 41.0833 -73.5500 246° West 173 199 2,100 -250 Descending New York TRACON
Mon 08:04:45 PM 41.0833 -73.6167 270° West 167 192 2,000 -100 Descending New York TRACON
Mon 08:05:45 PM 41.0500 -73.6667 229° Southwest 153 176 1,900 -100 Descending New York TRACON
Mon 08:07:00 PM 41.0667 -73.7000 270° West  Level FlightAware Approximate
Mon 08:14:00 PM 41.0669 -73.7076 270° West  Level Estimated
Mon 08:15:00 PM 41.0667 -73.7000 270° West  Level FlightAware Approximate

Login

Don't have an account? Register now (free) for customized features, flight alerts, and more!